SANTIAGO DE COMPOSTELA, GALICIA

latitud = 42° 53' 17''N | Longitud = 008° 24' 38''W
370 metros sobre el nivel del mar | datos mensuales

Fecha, hora, temperatura, viento dirección y velocidad, humedad y presión.

  • 14-10-2018 19:00:00 | 13.20°C | Oeste |8.00 km/h | 74.00% | 969.50 hPa
  • 14-10-2018 18:00:00 | 14.20°C | Norte |7.00 km/h | 70.00% | 969.70 hPa
  • 14-10-2018 17:00:00 | 14.40°C | Noroeste |13.00 km/h | 65.00% | 969.90 hPa
  • 14-10-2018 16:00:00 | 13.80°C | Norte |14.00 km/h | 68.00% | 970.60 hPa
  • 14-10-2018 15:00:00 | 14.50°C | Norte |19.00 km/h | 68.00% | 970.70 hPa
  • 14-10-2018 14:00:00 | 14.20°C | Norte |26.00 km/h | 71.00% | 970.70 hPa
  • 14-10-2018 13:00:00 | 13.80°C | Norte |29.00 km/h | 78.00% | 970.80 hPa
  • 14-10-2018 12:00:00 | 12.30°C | Norte |26.00 km/h | 88.00% | 970.40 hPa
  • 14-10-2018 11:00:00 | 11.20°C | Noroeste |14.00 km/h | 92.00% | 969.90 hPa
  • 14-10-2018 10:00:00 | 10.60°C | Noroeste |10.00 km/h | 94.00% | 968.90 hPa
  • 14-10-2018 09:00:00 | 10.00°C | Noroeste |12.00 km/h | 98.00% | 967.90 hPa
  • 14-10-2018 08:00:00 | 9.20°C | Norte |6.00 km/h | 98.00% | 966.70 hPa
  • 14-10-2018 07:00:00 | 8.90°C | Sudoeste |6.00 km/h | 98.00% | 965.90 hPa
  • 14-10-2018 06:00:00 | 8.80°C | Sudoeste |6.00 km/h | 96.00% | 965.90 hPa
  • 14-10-2018 05:00:00 | 8.90°C | Noroeste |6.00 km/h | 93.00% | 965.60 hPa
  • 14-10-2018 04:00:00 | 9.30°C | Noroeste |15.00 km/h | 92.00% | 965.20 hPa
  • 14-10-2018 03:00:00 | 9.90°C | Norte |21.00 km/h | 94.00% | 965.00 hPa
  • 14-10-2018 02:00:00 | 10.10°C | Norte |13.00 km/h | 97.00% | 964.60 hPa
  • 14-10-2018 01:00:00 | 10.10°C | Norte |13.00 km/h | 98.00% | 964.50 hPa
  • 14-10-2018 00:00:00 | 10.20°C | Norte |7.00 km/h | 97.00% | 965.60 hPa
  • 13-10-2018 23:00:00 | 10.70°C | Norte |9.00 km/h | 97.00% | 965.90 hPa
  • 13-10-2018 22:00:00 | 11.00°C | Norte |26.00 km/h | 95.00% | 966.20 hPa
  • 13-10-2018 21:00:00 | 12.20°C | Norte |23.00 km/h | 95.00% | 966.30 hPa
  • 13-10-2018 20:00:00 | 17.30°C | Noroeste |12.00 km/h | 77.00% | 966.40 hPa